CYOO

Oshawa Airport

Oshawa, , Canada
METAR CYOO 231400Z AUTO 31009KT 9SM CLR 19/08 A3003 RMK SLP171 DENSITY ALT 900FT
Observed Flight Rules
May-23 @ 14:00 UTC (an hour ago) Visual Flight Rules
Wind Visibility Clouds
310° at 9 knots 9 miles
  • Clear skies
Temperatures Readings
Current 19°C / 66°F
Dewpoint 8°C / 46°F
Humidity 49%
Altimeter 30.03" Hg
Pressure 1017.1 hPa
Elevation 139
METAR CYOO 231400Z AUTO 31009KT 9SM CLR 19/08 A3003 RMK SLP171 DENSITY ALT 900FT
Observed Flight Rules
May-23 @ 14:00 UTC
(an hour ago)
VFR
Wind Visibility
310° at 9 knots 9 miles
Clouds
  • Clear skies
Temperature Dewpoint
19°C / 66°F 8°C / 46°F
Humidity Altimeter Pressure
49% 30.03" Hg 1017.1 hPa